createdAt,value
2023-02-04T00:01:01.574Z,5.03
2023-02-04T00:06:03.565Z,5.03
2023-02-04T00:11:05.828Z,4.94
2023-02-04T00:16:07.751Z,4.78
2023-02-04T00:21:09.641Z,4.67
2023-02-04T00:26:13.604Z,4.58
2023-02-04T00:31:15.552Z,4.47
2023-02-04T00:36:17.418Z,4.40
2023-02-04T00:41:19.542Z,4.34
2023-02-04T00:46:21.400Z,4.29
2023-02-04T00:51:23.338Z,4.25
2023-02-04T00:56:25.148Z,4.14
2023-02-04T01:01:26.892Z,4.07
2023-02-04T01:06:28.840Z,4.00
2023-02-04T01:11:36.662Z,3.97
2023-02-04T01:16:41.595Z,3.96
2023-02-04T01:21:43.492Z,3.94
2023-02-04T01:26:46.346Z,3.92
2023-02-04T01:31:48.375Z,3.89
2023-02-04T01:36:50.280Z,3.88
2023-02-04T01:41:52.656Z,3.89
2023-02-04T01:46:55.084Z,3.86
2023-02-04T01:51:57.539Z,3.82
2023-02-04T01:56:59.415Z,3.72
2023-02-04T02:02:01.448Z,3.63
2023-02-04T02:07:06.707Z,3.60
2023-02-04T02:12:09.079Z,3.56
2023-02-04T02:17:10.939Z,3.53
2023-02-04T02:22:34.617Z,3.53
2023-02-04T02:27:37.433Z,3.48
2023-02-04T02:32:42.218Z,3.48
2023-02-04T02:37:44.466Z,3.48
2023-02-04T02:42:52.104Z,3.48
2023-02-04T02:47:59.594Z,3.43
2023-02-04T02:53:01.620Z,3.41
2023-02-04T02:58:16.151Z,3.39
2023-02-04T03:03:22.391Z,3.34
2023-02-04T03:08:24.726Z,3.27
2023-02-04T03:13:26.903Z,3.24
2023-02-04T03:18:29.276Z,3.19
2023-02-04T03:23:33.878Z,3.20
2023-02-04T03:28:40.940Z,3.20
2023-02-04T03:33:43.887Z,3.23
2023-02-04T03:38:45.716Z,3.29
2023-02-04T03:43:47.499Z,3.33
2023-02-04T03:48:49.841Z,3.30
2023-02-04T03:53:51.619Z,3.28
2023-02-04T03:58:53.622Z,3.23
2023-02-04T04:03:55.436Z,3.13
2023-02-04T04:08:57.300Z,3.08
2023-02-04T04:13:59.317Z,3.05
2023-02-04T04:19:01.243Z,3.02
2023-02-04T04:24:04.344Z,2.99
2023-02-04T04:29:06.256Z,2.95
2023-02-04T04:34:08.170Z,2.92
2023-02-04T04:39:10.085Z,2.90
2023-02-04T04:44:11.968Z,2.93
2023-02-04T04:49:13.895Z,2.93
2023-02-04T04:54:16.039Z,2.98
2023-02-04T04:59:17.818Z,2.98
2023-02-04T05:04:19.675Z,2.99
2023-02-04T05:09:21.533Z,2.99
2023-02-04T05:14:23.381Z,2.98
2023-02-04T05:19:25.179Z,3.00
2023-02-04T05:24:28.140Z,2.99
2023-02-04T05:29:30.082Z,2.91
2023-02-04T05:34:31.899Z,2.87
2023-02-04T05:39:33.753Z,2.84
2023-02-04T05:44:35.789Z,2.81
2023-02-04T05:49:37.650Z,2.77
2023-02-04T05:54:39.538Z,2.66
2023-02-04T05:59:41.364Z,2.60
2023-02-04T06:04:44.829Z,2.56
2023-02-04T06:09:46.788Z,2.47
2023-02-04T06:14:48.612Z,2.43
2023-02-04T06:19:50.395Z,2.40
2023-02-04T06:24:52.251Z,2.37
2023-02-04T06:29:54.392Z,2.35
2023-02-04T06:34:56.197Z,2.37
2023-02-04T06:39:58.260Z,2.35
2023-02-04T06:45:00.268Z,2.30
2023-02-04T06:50:02.063Z,2.23
2023-02-04T06:55:04.184Z,2.24
2023-02-04T07:00:09.085Z,2.27
2023-02-04T07:05:10.872Z,2.27
2023-02-04T07:10:13.353Z,2.28
2023-02-04T07:15:15.459Z,2.24
2023-02-04T07:20:17.629Z,2.20
2023-02-04T07:25:19.694Z,2.22
2023-02-04T07:30:21.492Z,2.26
2023-02-04T07:35:24.326Z,2.28
2023-02-04T07:40:26.098Z,2.32
2023-02-04T07:45:28.033Z,2.36
2023-02-04T07:50:29.935Z,2.37
2023-02-04T07:55:32.073Z,2.37
2023-02-04T08:00:34.434Z,2.36
2023-02-04T08:05:36.510Z,2.37
2023-02-04T08:10:38.374Z,2.45
2023-02-04T08:15:40.202Z,2.48
2023-02-04T08:20:41.958Z,2.49
2023-02-04T08:25:45.628Z,2.53
2023-02-04T08:30:47.698Z,2.58
2023-02-04T08:35:50.469Z,2.64
2023-02-04T08:40:52.478Z,2.66
2023-02-04T08:45:54.340Z,2.70
2023-02-04T08:50:56.258Z,2.72
2023-02-04T08:55:58.323Z,2.75
2023-02-04T09:01:00.263Z,2.75
2023-02-04T09:06:02.218Z,2.74
2023-02-04T09:11:04.577Z,2.76
2023-02-04T09:16:06.809Z,2.79
2023-02-04T09:21:08.708Z,2.78
2023-02-04T09:26:10.703Z,2.81
2023-02-04T09:31:12.782Z,2.91
2023-02-04T09:36:14.958Z,3.00
2023-02-04T09:41:16.839Z,3.07
2023-02-04T09:46:24.197Z,3.10
2023-02-04T09:51:29.319Z,3.16
2023-02-04T09:56:31.374Z,3.21
2023-02-04T10:01:33.271Z,3.24
2023-02-04T10:06:35.205Z,3.27
2023-02-04T10:11:41.881Z,3.33
2023-02-04T10:16:51.066Z,3.37
2023-02-04T10:21:52.887Z,3.40
2023-02-04T10:26:55.014Z,3.44
2023-02-04T10:31:57.061Z,3.48
2023-02-04T10:36:58.977Z,3.51
2023-02-04T10:42:01.292Z,3.54
2023-02-04T10:47:24.884Z,3.61
2023-02-04T10:52:49.687Z,3.67
2023-02-04T10:57:52.992Z,3.65
2023-02-04T11:03:02.376Z,3.64
2023-02-04T11:08:19.624Z,3.63
2023-02-04T11:13:28.484Z,3.64
2023-02-04T11:18:30.990Z,3.62
2023-02-04T11:23:34.957Z,3.63
2023-02-04T11:28:48.888Z,3.68
2023-02-04T11:34:03.170Z,3.64
2023-02-04T11:39:16.471Z,3.58
2023-02-04T11:44:19.626Z,3.64
2023-02-04T11:49:23.976Z,3.68
2023-02-04T11:54:25.763Z,3.76
2023-02-04T11:59:27.727Z,3.87
2023-02-04T12:04:29.608Z,3.90
2023-02-04T12:09:32.399Z,3.85
2023-02-04T12:14:36.914Z,3.81
2023-02-04T12:19:38.773Z,3.83
2023-02-04T12:24:40.574Z,3.91
2023-02-04T12:29:42.322Z,3.88
2023-02-04T12:34:44.135Z,3.79
2023-02-04T12:39:45.849Z,3.75
2023-02-04T12:44:47.604Z,3.77
2023-02-04T12:49:49.519Z,3.83
2023-02-04T12:54:51.349Z,3.86
2023-02-04T12:59:53.277Z,3.81
2023-02-04T13:04:55.204Z,3.81
2023-02-04T13:09:57.622Z,3.82
2023-02-04T13:14:59.428Z,3.79
2023-02-04T13:20:01.398Z,3.80
2023-02-04T13:25:04.237Z,3.83
2023-02-04T13:30:08.052Z,3.84
2023-02-04T13:35:10.019Z,3.78
2023-02-04T13:40:12.381Z,3.77
2023-02-04T13:45:16.328Z,3.70
2023-02-04T13:50:18.336Z,3.63
2023-02-04T13:55:20.168Z,3.62
2023-02-04T14:00:22.227Z,3.66
2023-02-04T14:05:25.235Z,3.66
2023-02-04T14:10:27.197Z,3.69
2023-02-04T14:15:29.013Z,3.70
2023-02-04T14:20:31.900Z,3.66
2023-02-04T14:25:34.019Z,3.66
2023-02-04T14:30:36.408Z,3.73
2023-02-04T14:35:38.383Z,3.79
2023-02-04T14:40:40.233Z,3.77
2023-02-04T14:45:42.201Z,3.72
2023-02-04T14:50:44.104Z,3.69
2023-02-04T14:55:48.804Z,3.67
2023-02-04T15:00:50.700Z,3.65
2023-02-04T15:05:52.592Z,3.64
2023-02-04T15:10:54.468Z,3.62
2023-02-04T15:15:56.771Z,3.58
2023-02-04T15:20:58.724Z,3.55
2023-02-04T15:26:00.535Z,3.48
2023-02-04T15:31:04.416Z,3.43
2023-02-04T15:36:06.870Z,3.37
2023-02-04T15:41:08.730Z,3.30
2023-02-04T15:46:10.833Z,3.21
2023-02-04T15:51:12.941Z,3.13
2023-02-04T15:56:14.782Z,3.06
2023-02-04T16:01:16.768Z,3.02
2023-02-04T16:06:18.589Z,2.97
2023-02-04T16:11:20.402Z,2.92
2023-02-04T16:16:22.355Z,2.90
2023-02-04T16:21:24.301Z,2.89
2023-02-04T16:26:26.354Z,2.87
2023-02-04T16:31:28.297Z,2.83
2023-02-04T16:36:30.254Z,2.80
2023-02-04T16:41:32.574Z,2.76
2023-02-04T16:46:34.573Z,2.72
2023-02-04T16:51:36.418Z,2.71
2023-02-04T16:56:38.218Z,2.69
2023-02-04T17:01:40.217Z,2.67
2023-02-04T17:06:43.107Z,2.61
2023-02-04T17:11:45.686Z,2.54
2023-02-04T17:16:48.568Z,2.51
2023-02-04T17:21:50.443Z,2.48
2023-02-04T17:26:52.224Z,2.45
2023-02-04T17:31:54.290Z,2.44
2023-02-04T17:36:56.859Z,2.46
2023-02-04T17:41:58.722Z,2.47
2023-02-04T17:47:00.604Z,2.45
2023-02-04T17:52:02.650Z,2.44
2023-02-04T17:57:30.911Z,2.44
2023-02-04T18:02:32.973Z,2.44
2023-02-04T18:07:35.736Z,2.42
2023-02-04T18:12:37.470Z,2.41
2023-02-04T18:17:39.324Z,2.42
2023-02-04T18:22:41.129Z,2.39
2023-02-04T18:27:43.000Z,2.39
2023-02-04T18:32:44.778Z,2.38
2023-02-04T18:37:49.755Z,2.38
2023-02-04T18:43:02.764Z,2.38
2023-02-04T18:48:19.592Z,2.42
2023-02-04T18:53:26.944Z,2.39
2023-02-04T18:58:31.267Z,2.37
2023-02-04T19:03:42.108Z,2.33
2023-02-04T19:08:45.346Z,2.30
2023-02-04T19:13:48.904Z,2.26
2023-02-04T19:18:52.783Z,2.24
2023-02-04T19:24:17.231Z,2.23
2023-02-04T19:29:22.565Z,2.22
2023-02-04T19:34:26.237Z,2.21
2023-02-04T19:39:38.546Z,2.25
2023-02-04T19:44:46.703Z,2.23
2023-02-04T19:49:48.438Z,2.24
2023-02-04T19:54:50.183Z,2.25
2023-02-04T19:59:56.880Z,2.26
2023-02-04T20:05:00.344Z,2.26
2023-02-04T20:10:26.176Z,2.26
2023-02-04T20:15:28.269Z,2.24
2023-02-04T20:20:32.571Z,2.25
2023-02-04T20:25:40.359Z,2.23
2023-02-04T20:30:42.647Z,2.21
2023-02-04T20:35:44.419Z,2.14
2023-02-04T20:40:46.975Z,2.08
2023-02-04T20:46:03.270Z,2.02
2023-02-04T20:51:15.191Z,1.91
2023-02-04T20:56:30.314Z,1.83
2023-02-04T21:01:35.196Z,1.79
2023-02-04T21:06:37.178Z,1.69
2023-02-04T21:11:39.020Z,1.61
2023-02-04T21:16:40.891Z,1.61
2023-02-04T21:21:42.938Z,1.60
2023-02-04T21:26:44.802Z,1.59
2023-02-04T21:31:46.753Z,1.50
2023-02-04T21:36:48.701Z,1.52
2023-02-04T21:42:10.626Z,1.55
2023-02-04T21:47:13.800Z,1.54
2023-02-04T21:52:15.814Z,1.51
2023-02-04T21:57:17.651Z,1.45
2023-02-04T22:02:19.699Z,1.42
2023-02-04T22:07:21.675Z,1.42
2023-02-04T22:12:23.539Z,1.43
2023-02-04T22:17:25.697Z,1.39
2023-02-04T22:22:27.630Z,1.34
2023-02-04T22:27:29.667Z,1.30
2023-02-04T22:32:31.531Z,1.30
2023-02-04T22:37:33.486Z,1.29
2023-02-04T22:42:35.415Z,1.29
2023-02-04T22:47:37.475Z,1.28
2023-02-04T22:52:39.322Z,1.28
2023-02-04T22:57:41.148Z,1.24
2023-02-04T23:02:42.999Z,1.23
2023-02-04T23:07:44.899Z,1.17
2023-02-04T23:12:47.078Z,1.11
2023-02-04T23:17:48.935Z,1.08
2023-02-04T23:22:50.704Z,1.06
2023-02-04T23:27:52.545Z,1.03
2023-02-04T23:32:54.408Z,1.02
2023-02-04T23:37:56.248Z,1.04
2023-02-04T23:42:58.127Z,1.05
2023-02-04T23:48:00.155Z,1.07
2023-02-04T23:53:01.944Z,1.06
2023-02-04T23:58:03.822Z,1.03
